sensor_id;sensor_type;location;lat;lon;timestamp;pressure;altitude;pressure_sealevel;temperature;humidity
71964;BME280;59834;52.124;5.422;2022-08-11T00:01:51;102393.00;;;19.89;57.55
71964;BME280;59834;52.124;5.422;2022-08-11T00:04:20;102390.44;;;19.87;57.64
71964;BME280;59834;52.124;5.422;2022-08-11T00:06:49;102392.38;;;19.85;57.87
71964;BME280;59834;52.124;5.422;2022-08-11T00:09:19;102390.91;;;19.81;57.81
71964;BME280;59834;52.124;5.422;2022-08-11T00:11:51;102388.16;;;19.83;57.65
71964;BME280;59834;52.124;5.422;2022-08-11T00:14:29;102389.22;;;19.80;57.55
71964;BME280;59834;52.124;5.422;2022-08-11T00:17:12;102393.19;;;19.74;57.82
71964;BME280;59834;52.124;5.422;2022-08-11T00:19:46;102391.03;;;19.68;58.65
71964;BME280;59834;52.124;5.422;2022-08-11T00:22:35;102395.09;;;19.61;59.38
71964;BME280;59834;52.124;5.422;2022-08-11T00:25:11;102400.75;;;19.57;59.02
71964;BME280;59834;52.124;5.422;2022-08-11T00:27:39;102401.13;;;19.52;59.77
71964;BME280;59834;52.124;5.422;2022-08-11T00:30:08;102402.19;;;19.49;60.20
71964;BME280;59834;52.124;5.422;2022-08-11T00:32:44;102398.19;;;19.44;60.00
71964;BME280;59834;52.124;5.422;2022-08-11T00:35:14;102394.44;;;19.35;61.01
71964;BME280;59834;52.124;5.422;2022-08-11T00:38:03;102398.50;;;19.28;61.07
71964;BME280;59834;52.124;5.422;2022-08-11T00:40:43;102404.06;;;19.25;60.98
71964;BME280;59834;52.124;5.422;2022-08-11T00:49:01;102392.06;;;19.08;62.34
71964;BME280;59834;52.124;5.422;2022-08-11T00:54:56;102396.34;;;18.98;62.01
71964;BME280;59834;52.124;5.422;2022-08-11T00:57:52;102399.59;;;18.90;62.24
71964;BME280;59834;52.124;5.422;2022-08-11T01:00:25;102399.41;;;18.80;63.22
71964;BME280;59834;52.124;5.422;2022-08-11T01:11:55;102398.25;;;18.48;64.63
71964;BME280;59834;52.124;5.422;2022-08-11T01:15:11;102401.22;;;18.43;65.29
71964;BME280;59834;52.124;5.422;2022-08-11T01:18:10;102394.53;;;18.37;65.78
71964;BME280;59834;52.124;5.422;2022-08-11T01:23:56;102391.81;;;18.26;65.53
71964;BME280;59834;52.124;5.422;2022-08-11T01:32:08;102393.44;;;18.16;66.47
71964;BME280;59834;52.124;5.422;2022-08-11T01:35:18;102387.50;;;18.12;65.92
71964;BME280;59834;52.124;5.422;2022-08-11T01:41:14;102389.19;;;18.13;65.63
71964;BME280;59834;52.124;5.422;2022-08-11T01:53:20;102396.31;;;18.00;66.41
71964;BME280;59834;52.124;5.422;2022-08-11T01:59:10;102385.84;;;17.99;67.28
71964;BME280;59834;52.124;5.422;2022-08-11T02:04:24;102399.41;;;17.94;66.45
71964;BME280;59834;52.124;5.422;2022-08-11T02:10:02;102389.25;;;17.88;66.60
71964;BME280;59834;52.124;5.422;2022-08-11T02:15:50;102393.78;;;17.86;67.72
71964;BME280;59834;52.124;5.422;2022-08-11T02:18:41;102391.25;;;17.84;67.31
71964;BME280;59834;52.124;5.422;2022-08-11T02:21:40;102388.81;;;17.81;67.36
71964;BME280;59834;52.124;5.422;2022-08-11T02:24:40;102385.53;;;17.78;68.06
71964;BME280;59834;52.124;5.422;2022-08-11T02:27:20;102382.09;;;17.76;67.97
71964;BME280;59834;52.124;5.422;2022-08-11T02:29:54;102388.28;;;17.76;68.19
71964;BME280;59834;52.124;5.422;2022-08-11T02:32:40;102380.72;;;17.70;67.96
71964;BME280;59834;52.124;5.422;2022-08-11T02:38:25;102384.66;;;17.64;68.18
71964;BME280;59834;52.124;5.422;2022-08-11T02:41:15;102386.47;;;17.64;68.78
71964;BME280;59834;52.124;5.422;2022-08-11T02:44:24;102387.53;;;17.61;69.21
71964;BME280;59834;52.124;5.422;2022-08-11T02:47:14;102384.31;;;17.56;68.58
71964;BME280;59834;52.124;5.422;2022-08-11T02:52:40;102383.16;;;17.48;70.04
71964;BME280;59834;52.124;5.422;2022-08-11T02:55:21;102389.84;;;17.40;69.75
71964;BME280;59834;52.124;5.422;2022-08-11T02:58:35;102381.34;;;17.35;70.45
71964;BME280;59834;52.124;5.422;2022-08-11T03:01:15;102377.09;;;17.33;70.30
71964;BME280;59834;52.124;5.422;2022-08-11T03:04:00;102375.75;;;17.27;70.53
71964;BME280;59834;52.124;5.422;2022-08-11T03:09:19;102374.66;;;17.17;71.02
71964;BME280;59834;52.124;5.422;2022-08-11T03:11:58;102378.25;;;17.16;71.22
71964;BME280;59834;52.124;5.422;2022-08-11T03:15:11;102379.19;;;17.15;70.73
71964;BME280;59834;52.124;5.422;2022-08-11T03:18:17;102379.19;;;17.15;70.78
71964;BME280;59834;52.124;5.422;2022-08-11T03:21:15;102369.03;;;17.09;71.45
71964;BME280;59834;52.124;5.422;2022-08-11T03:24:00;102370.91;;;17.07;70.99
71964;BME280;59834;52.124;5.422;2022-08-11T03:26:47;102372.06;;;17.03;71.65
71964;BME280;59834;52.124;5.422;2022-08-11T03:29:28;102368.78;;;16.99;72.18
71964;BME280;59834;52.124;5.422;2022-08-11T03:32:25;102373.22;;;16.99;71.77
71964;BME280;59834;52.124;5.422;2022-08-11T03:34:57;102370.34;;;16.89;72.03
71964;BME280;59834;52.124;5.422;2022-08-11T03:37:38;102371.06;;;16.78;71.87
71964;BME280;59834;52.124;5.422;2022-08-11T03:40:32;102372.94;;;16.76;71.64
71964;BME280;59834;52.124;5.422;2022-08-11T03:46:34;102368.88;;;16.70;72.15
71964;BME280;59834;52.124;5.422;2022-08-11T03:49:31;102378.63;;;16.70;71.87
71964;BME280;59834;52.124;5.422;2022-08-11T04:00:08;102379.78;;;16.52;74.15
71964;BME280;59834;52.124;5.422;2022-08-11T04:11:23;102377.06;;;16.39;73.24
71964;BME280;59834;52.124;5.422;2022-08-11T04:20:27;102375.56;;;16.35;74.19
71964;BME280;59834;52.124;5.422;2022-08-11T04:23:49;102369.06;;;16.26;75.12
71964;BME280;59834;52.124;5.422;2022-08-11T04:26:51;102363.78;;;16.26;75.38
71964;BME280;59834;52.124;5.422;2022-08-11T04:29:49;102363.59;;;16.29;74.71
71964;BME280;59834;52.124;5.422;2022-08-11T04:32:54;102362.56;;;16.32;74.75
71964;BME280;59834;52.124;5.422;2022-08-11T04:35:31;102366.63;;;16.37;74.66
71964;BME280;59834;52.124;5.422;2022-08-11T04:41:32;102360.75;;;16.46;74.26
71964;BME280;59834;52.124;5.422;2022-08-11T04:45:00;102362.97;;;16.53;74.63
71964;BME280;59834;52.124;5.422;2022-08-11T04:54:25;102366.53;;;16.66;73.93
71964;BME280;59834;52.124;5.422;2022-08-11T04:57:21;102363.03;;;16.65;74.02
71964;BME280;59834;52.124;5.422;2022-08-11T05:00:29;102360.31;;;16.67;74.18
71964;BME280;59834;52.124;5.422;2022-08-11T05:06:34;102360.28;;;16.81;74.21
71964;BME280;59834;52.124;5.422;2022-08-11T05:09:21;102353.03;;;18.25;71.94
71964;BME280;59834;52.124;5.422;2022-08-11T05:12:08;102348.69;;;20.55;64.55
71964;BME280;59834;52.124;5.422;2022-08-11T05:14:52;102344.31;;;22.10;59.46
71964;BME280;59834;52.124;5.422;2022-08-11T05:17:43;102343.59;;;23.07;54.56
71964;BME280;59834;52.124;5.422;2022-08-11T05:20:30;102344.00;;;23.79;52.53
71964;BME280;59834;52.124;5.422;2022-08-11T05:23:32;102343.47;;;24.20;51.17
71964;BME280;59834;52.124;5.422;2022-08-11T05:26:22;102336.41;;;24.47;50.71
71964;BME280;59834;52.124;5.422;2022-08-11T05:29:45;102341.88;;;25.17;49.79
71964;BME280;59834;52.124;5.422;2022-08-11T05:32:37;102343.25;;;25.21;48.20
71964;BME280;59834;52.124;5.422;2022-08-11T05:35:37;102351.06;;;25.32;48.22
71964;BME280;59834;52.124;5.422;2022-08-11T05:38:29;102350.00;;;25.25;47.49
71964;BME280;59834;52.124;5.422;2022-08-11T05:41:18;102350.81;;;25.08;48.28
71964;BME280;59834;52.124;5.422;2022-08-11T05:44:08;102358.81;;;25.44;46.68
71964;BME280;59834;52.124;5.422;2022-08-11T05:46:54;102357.34;;;25.49;47.02
71964;BME280;59834;52.124;5.422;2022-08-11T05:49:41;102351.41;;;25.72;46.50
71964;BME280;59834;52.124;5.422;2022-08-11T05:52:36;102355.03;;;25.89;45.85
71964;BME280;59834;52.124;5.422;2022-08-11T05:55:23;102354.53;;;25.85;46.04
71964;BME280;59834;52.124;5.422;2022-08-11T05:58:37;102357.13;;;26.11;45.47
71964;BME280;59834;52.124;5.422;2022-08-11T06:01:12;102362.91;;;26.41;45.06
71964;BME280;59834;52.124;5.422;2022-08-11T06:03:42;102361.84;;;26.17;45.31
71964;BME280;59834;52.124;5.422;2022-08-11T06:06:29;102353.16;;;26.31;45.39
71964;BME280;59834;52.124;5.422;2022-08-11T06:08:58;102357.56;;;26.41;44.49
71964;BME280;59834;52.124;5.422;2022-08-11T06:11:26;102368.81;;;25.85;45.61
71964;BME280;59834;52.124;5.422;2022-08-11T06:14:11;102361.97;;;25.99;45.85
71964;BME280;59834;52.124;5.422;2022-08-11T06:16:40;102367.22;;;26.09;45.49
71964;BME280;59834;52.124;5.422;2022-08-11T06:19:08;102365.88;;;25.79;45.40
71964;BME280;59834;52.124;5.422;2022-08-11T06:21:35;102359.97;;;25.75;45.35
71964;BME280;59834;52.124;5.422;2022-08-11T06:24:10;102357.56;;;25.90;45.66
71964;BME280;59834;52.124;5.422;2022-08-11T06:26:37;102358.44;;;25.99;45.39
71964;BME280;59834;52.124;5.422;2022-08-11T06:29:26;102356.81;;;26.06;44.80
71964;BME280;59834;52.124;5.422;2022-08-11T06:32:04;102358.06;;;25.85;45.47
71964;BME280;59834;52.124;5.422;2022-08-11T06:34:39;102353.22;;;25.63;45.63
71964;BME280;59834;52.124;5.422;2022-08-11T06:37:35;102355.47;;;26.10;45.52
71964;BME280;59834;52.124;5.422;2022-08-11T06:40:33;102350.94;;;26.02;45.53
71964;BME280;59834;52.124;5.422;2022-08-11T06:43:14;102352.09;;;25.74;45.26
71964;BME280;59834;52.124;5.422;2022-08-11T06:46:13;102355.22;;;25.35;46.65
71964;BME280;59834;52.124;5.422;2022-08-11T06:48:54;102354.28;;;25.00;47.40
71964;BME280;59834;52.124;5.422;2022-08-11T06:51:26;102353.56;;;25.34;46.52
71964;BME280;59834;52.124;5.422;2022-08-11T06:54:00;102351.94;;;25.75;46.29
71964;BME280;59834;52.124;5.422;2022-08-11T06:56:35;102350.38;;;25.64;46.17
71964;BME280;59834;52.124;5.422;2022-08-11T06:59:43;102354.19;;;25.28;46.51
71964;BME280;59834;52.124;5.422;2022-08-11T07:02:53;102348.78;;;25.20;46.50
71964;BME280;59834;52.124;5.422;2022-08-11T07:05:37;102358.78;;;24.00;49.55
71964;BME280;59834;52.124;5.422;2022-08-11T07:14:49;102363.97;;;22.79;53.86
71964;BME280;59834;52.124;5.422;2022-08-11T07:17:41;102358.91;;;22.86;54.52
71964;BME280;59834;52.124;5.422;2022-08-11T07:20:17;102362.41;;;22.86;54.30
71964;BME280;59834;52.124;5.422;2022-08-11T07:23:04;102359.06;;;22.84;55.34
71964;BME280;59834;52.124;5.422;2022-08-11T07:25:53;102358.22;;;22.74;53.37
71964;BME280;59834;52.124;5.422;2022-08-11T07:28:46;102366.63;;;22.79;53.55
71964;BME280;59834;52.124;5.422;2022-08-11T07:31:29;102366.34;;;22.92;52.86
71964;BME280;59834;52.124;5.422;2022-08-11T07:36:53;102364.38;;;23.23;52.52
71964;BME280;59834;52.124;5.422;2022-08-11T07:39:30;102363.97;;;23.27;52.05
71964;BME280;59834;52.124;5.422;2022-08-11T07:41:59;102368.75;;;23.14;51.62
71964;BME280;59834;52.124;5.422;2022-08-11T07:44:33;102371.97;;;23.27;51.74
71964;BME280;59834;52.124;5.422;2022-08-11T07:47:23;102360.53;;;23.45;51.33
71964;BME280;59834;52.124;5.422;2022-08-11T07:50:09;102360.81;;;23.51;50.98
71964;BME280;59834;52.124;5.422;2022-08-11T07:52:57;102355.28;;;23.63;49.67
71964;BME280;59834;52.124;5.422;2022-08-11T07:55:26;102358.19;;;23.79;50.28
71964;BME280;59834;52.124;5.422;2022-08-11T07:58:22;102356.13;;;24.00;49.74
71964;BME280;59834;52.124;5.422;2022-08-11T08:01:20;102354.47;;;23.90;48.65
71964;BME280;59834;52.124;5.422;2022-08-11T08:04:17;102349.69;;;23.93;49.21
71964;BME280;59834;52.124;5.422;2022-08-11T08:07:04;102352.84;;;24.07;48.57
71964;BME280;59834;52.124;5.422;2022-08-11T08:09:52;102352.91;;;23.97;48.73
71964;BME280;59834;52.124;5.422;2022-08-11T08:12:41;102353.81;;;23.88;49.13
71964;BME280;59834;52.124;5.422;2022-08-11T08:15:26;102353.72;;;23.97;49.48
71964;BME280;59834;52.124;5.422;2022-08-11T08:18:12;102359.69;;;23.91;49.68
71964;BME280;59834;52.124;5.422;2022-08-11T08:20:54;102355.72;;;23.95;50.15
71964;BME280;59834;52.124;5.422;2022-08-11T08:23:25;102357.31;;;24.16;49.90
71964;BME280;59834;52.124;5.422;2022-08-11T08:26:04;102351.84;;;24.35;49.93
71964;BME280;59834;52.124;5.422;2022-08-11T08:28:52;102361.09;;;24.41;48.51
71964;BME280;59834;52.124;5.422;2022-08-11T08:31:20;102350.34;;;24.51;48.54
71964;BME280;59834;52.124;5.422;2022-08-11T08:33:50;102348.28;;;24.62;48.56
71964;BME280;59834;52.124;5.422;2022-08-11T08:36:21;102352.16;;;24.68;47.87
71964;BME280;59834;52.124;5.422;2022-08-11T08:38:51;102352.63;;;24.81;46.50
71964;BME280;59834;52.124;5.422;2022-08-11T08:41:27;102352.41;;;24.92;46.87
71964;BME280;59834;52.124;5.422;2022-08-11T08:43:58;102344.28;;;25.02;46.57
71964;BME280;59834;52.124;5.422;2022-08-11T08:46:53;102348.31;;;25.24;46.45
71964;BME280;59834;52.124;5.422;2022-08-11T08:49:25;102344.38;;;25.36;46.30
71964;BME280;59834;52.124;5.422;2022-08-11T08:51:57;102345.59;;;25.42;45.97
71964;BME280;59834;52.124;5.422;2022-08-11T08:54:50;102344.59;;;25.51;43.91
71964;BME280;59834;52.124;5.422;2022-08-11T08:57:21;102340.44;;;25.49;43.92
71964;BME280;59834;52.124;5.422;2022-08-11T08:59:50;102334.28;;;25.64;44.04
71964;BME280;59834;52.124;5.422;2022-08-11T09:02:19;102341.88;;;25.69;42.98
71964;BME280;59834;52.124;5.422;2022-08-11T09:05:01;102343.47;;;25.88;44.31
71964;BME280;59834;52.124;5.422;2022-08-11T09:07:30;102339.13;;;25.95;43.53
71964;BME280;59834;52.124;5.422;2022-08-11T09:10:05;102334.00;;;26.10;43.04
71964;BME280;59834;52.124;5.422;2022-08-11T09:12:33;102330.31;;;26.11;43.20
71964;BME280;59834;52.124;5.422;2022-08-11T09:15:05;102332.34;;;26.09;42.61
71964;BME280;59834;52.124;5.422;2022-08-11T09:17:38;102335.03;;;26.25;42.34
71964;BME280;59834;52.124;5.422;2022-08-11T09:20:14;102331.50;;;26.25;40.92
71964;BME280;59834;52.124;5.422;2022-08-11T09:22:43;102326.19;;;26.33;40.39
71964;BME280;59834;52.124;5.422;2022-08-11T09:25:52;102320.81;;;26.41;39.68
71964;BME280;59834;52.124;5.422;2022-08-11T09:28:41;102327.06;;;26.58;39.25
71964;BME280;59834;52.124;5.422;2022-08-11T09:31:10;102323.88;;;26.71;38.53
71964;BME280;59834;52.124;5.422;2022-08-11T09:33:42;102314.50;;;26.83;38.73
71964;BME280;59834;52.124;5.422;2022-08-11T09:36:11;102318.31;;;26.72;37.87
71964;BME280;59834;52.124;5.422;2022-08-11T09:38:59;102310.28;;;26.64;38.74
71964;BME280;59834;52.124;5.422;2022-08-11T09:41:49;102314.63;;;26.65;38.78
71964;BME280;59834;52.124;5.422;2022-08-11T09:44:29;102306.91;;;26.78;38.11
71964;BME280;59834;52.124;5.422;2022-08-11T09:47:21;102300.53;;;26.88;37.78
71964;BME280;59834;52.124;5.422;2022-08-11T09:50:00;102303.03;;;27.06;38.37
71964;BME280;59834;52.124;5.422;2022-08-11T09:52:31;102303.84;;;27.06;36.50
71964;BME280;59834;52.124;5.422;2022-08-11T09:54:58;102296.13;;;27.11;36.36
71964;BME280;59834;52.124;5.422;2022-08-11T09:57:28;102298.63;;;27.29;36.36
71964;BME280;59834;52.124;5.422;2022-08-11T10:00:13;102303.31;;;27.43;34.99
71964;BME280;59834;52.124;5.422;2022-08-11T10:02:46;102292.94;;;27.24;35.76
71964;BME280;59834;52.124;5.422;2022-08-11T10:05:19;102297.13;;;27.35;35.15
71964;BME280;59834;52.124;5.422;2022-08-11T10:08:11;102293.09;;;27.31;34.61
71964;BME280;59834;52.124;5.422;2022-08-11T10:10:42;102304.00;;;27.37;33.47
71964;BME280;59834;52.124;5.422;2022-08-11T10:13:17;102299.75;;;27.43;33.27
71964;BME280;59834;52.124;5.422;2022-08-11T10:16:06;102291.00;;;27.49;33.63
71964;BME280;59834;52.124;5.422;2022-08-11T10:18:42;102290.56;;;27.77;33.06
71964;BME280;59834;52.124;5.422;2022-08-11T10:21:27;102284.47;;;27.91;32.65
71964;BME280;59834;52.124;5.422;2022-08-11T10:23:59;102287.53;;;28.11;32.85
71964;BME280;59834;52.124;5.422;2022-08-11T10:26:46;102283.03;;;28.26;32.16
71964;BME280;59834;52.124;5.422;2022-08-11T10:29:35;102283.59;;;28.22;33.63
71964;BME280;59834;52.124;5.422;2022-08-11T10:32:24;102278.75;;;28.17;29.53
71964;BME280;59834;52.124;5.422;2022-08-11T10:35:26;102284.25;;;28.24;30.45
71964;BME280;59834;52.124;5.422;2022-08-11T10:37:54;102276.00;;;28.25;31.36
71964;BME280;59834;52.124;5.422;2022-08-11T10:40:45;102270.19;;;28.36;30.46
71964;BME280;59834;52.124;5.422;2022-08-11T10:43:33;102265.88;;;28.50;31.31
71964;BME280;59834;52.124;5.422;2022-08-11T10:46:22;102269.94;;;28.69;30.28
71964;BME280;59834;52.124;5.422;2022-08-11T10:49:08;102259.88;;;28.48;30.25
71964;BME280;59834;52.124;5.422;2022-08-11T10:51:36;102260.13;;;28.53;30.71
71964;BME280;59834;52.124;5.422;2022-08-11T10:54:24;102256.72;;;28.59;30.13
71964;BME280;59834;52.124;5.422;2022-08-11T10:57:10;102254.72;;;28.76;29.76
71964;BME280;59834;52.124;5.422;2022-08-11T10:59:57;102245.22;;;28.80;29.58
71964;BME280;59834;52.124;5.422;2022-08-11T11:02:27;102249.25;;;28.99;28.95
71964;BME280;59834;52.124;5.422;2022-08-11T11:04:59;102242.47;;;28.88;29.60
71964;BME280;59834;52.124;5.422;2022-08-11T11:08:00;102246.38;;;28.86;30.35
71964;BME280;59834;52.124;5.422;2022-08-11T11:10:54;102244.22;;;28.96;29.94
71964;BME280;59834;52.124;5.422;2022-08-11T11:13:24;102249.25;;;28.84;28.65
71964;BME280;59834;52.124;5.422;2022-08-11T11:16:22;102238.66;;;28.83;28.99
71964;BME280;59834;52.124;5.422;2022-08-11T11:19:19;102239.56;;;28.90;29.23
71964;BME280;59834;52.124;5.422;2022-08-11T11:21:55;102238.56;;;28.91;29.76
71964;BME280;59834;52.124;5.422;2022-08-11T11:24:59;102227.91;;;29.12;29.89
71964;BME280;59834;52.124;5.422;2022-08-11T11:27:33;102228.63;;;29.36;29.37
71964;BME280;59834;52.124;5.422;2022-08-11T11:30:12;102232.81;;;29.39;28.78
71964;BME280;59834;52.124;5.422;2022-08-11T11:33:03;102235.22;;;29.48;29.41
71964;BME280;59834;52.124;5.422;2022-08-11T11:35:43;102228.59;;;29.66;29.90
71964;BME280;59834;52.124;5.422;2022-08-11T11:38:15;102219.47;;;29.67;27.22
71964;BME280;59834;52.124;5.422;2022-08-11T11:40:43;102220.25;;;29.60;28.12
71964;BME280;59834;52.124;5.422;2022-08-11T11:43:32;102219.75;;;29.72;27.49
71964;BME280;59834;52.124;5.422;2022-08-11T11:46:01;102223.66;;;29.69;28.54
71964;BME280;59834;52.124;5.422;2022-08-11T11:48:29;102221.81;;;29.70;27.81
71964;BME280;59834;52.124;5.422;2022-08-11T11:50:57;102214.47;;;29.64;26.93
71964;BME280;59834;52.124;5.422;2022-08-11T11:53:26;102216.03;;;29.58;27.76
71964;BME280;59834;52.124;5.422;2022-08-11T11:55:57;102217.00;;;29.65;27.89
71964;BME280;59834;52.124;5.422;2022-08-11T11:58:26;102211.22;;;29.68;27.54
71964;BME280;59834;52.124;5.422;2022-08-11T12:01:13;102212.94;;;29.76;28.25
71964;BME280;59834;52.124;5.422;2022-08-11T12:03:47;102202.94;;;29.55;27.13
71964;BME280;59834;52.124;5.422;2022-08-11T12:06:16;102197.59;;;29.76;28.01
71964;BME280;59834;52.124;5.422;2022-08-11T12:08:43;102200.13;;;29.78;28.12
71964;BME280;59834;52.124;5.422;2022-08-11T12:11:14;102198.56;;;29.90;27.32
71964;BME280;59834;52.124;5.422;2022-08-11T12:14:02;102190.84;;;30.09;26.98
71964;BME280;59834;52.124;5.422;2022-08-11T12:16:41;102189.81;;;30.10;26.90
71964;BME280;59834;52.124;5.422;2022-08-11T12:19:15;102190.72;;;29.95;27.85
71964;BME280;59834;52.124;5.422;2022-08-11T12:21:44;102184.41;;;30.10;26.14
71964;BME280;59834;52.124;5.422;2022-08-11T12:24:31;102184.66;;;30.15;27.45
71964;BME280;59834;52.124;5.422;2022-08-11T12:27:18;102177.59;;;30.14;26.31
71964;BME280;59834;52.124;5.422;2022-08-11T12:29:54;102185.84;;;30.05;26.17
71964;BME280;59834;52.124;5.422;2022-08-11T12:32:30;102173.69;;;29.95;26.50
71964;BME280;59834;52.124;5.422;2022-08-11T12:34:57;102171.94;;;30.09;25.76
71964;BME280;59834;52.124;5.422;2022-08-11T12:37:31;102174.97;;;30.20;25.50
71964;BME280;59834;52.124;5.422;2022-08-11T12:40:06;102167.50;;;30.01;25.12
71964;BME280;59834;52.124;5.422;2022-08-11T12:43:17;102160.25;;;30.01;25.82
71964;BME280;59834;52.124;5.422;2022-08-11T12:46:10;102156.38;;;30.11;25.61
71964;BME280;59834;52.124;5.422;2022-08-11T12:48:43;102161.00;;;30.17;26.52
71964;BME280;59834;52.124;5.422;2022-08-11T12:51:33;102151.41;;;30.14;25.06
71964;BME280;59834;52.124;5.422;2022-08-11T12:54:48;102145.72;;;30.24;25.76
71964;BME280;59834;52.124;5.422;2022-08-11T12:57:23;102142.53;;;30.42;25.39
71964;BME280;59834;52.124;5.422;2022-08-11T13:00:09;102144.59;;;30.40;25.81
71964;BME280;59834;52.124;5.422;2022-08-11T13:02:58;102144.75;;;30.32;26.35
71964;BME280;59834;52.124;5.422;2022-08-11T13:05:46;102146.28;;;30.47;25.33
71964;BME280;59834;52.124;5.422;2022-08-11T13:08:14;102147.97;;;30.48;25.24
71964;BME280;59834;52.124;5.422;2022-08-11T13:10:43;102136.22;;;30.35;25.65
71964;BME280;59834;52.124;5.422;2022-08-11T13:13:30;102134.78;;;30.32;25.52
71964;BME280;59834;52.124;5.422;2022-08-11T13:16:21;102129.28;;;30.19;25.56
71964;BME280;59834;52.124;5.422;2022-08-11T13:18:49;102127.06;;;30.29;25.21
71964;BME280;59834;52.124;5.422;2022-08-11T13:21:20;102124.25;;;30.44;25.65
71964;BME280;59834;52.124;5.422;2022-08-11T13:23:50;102126.03;;;30.65;24.96
71964;BME280;59834;52.124;5.422;2022-08-11T13:26:33;102122.41;;;30.79;24.90
71964;BME280;59834;52.124;5.422;2022-08-11T13:29:23;102127.63;;;30.52;24.79
71964;BME280;59834;52.124;5.422;2022-08-11T13:31:53;102121.44;;;30.59;23.16
71964;BME280;59834;52.124;5.422;2022-08-11T13:34:23;102122.13;;;30.74;24.10
71964;BME280;59834;52.124;5.422;2022-08-11T13:36:54;102108.72;;;30.87;24.36
71964;BME280;59834;52.124;5.422;2022-08-11T13:39:22;102113.78;;;31.04;24.37
71964;BME280;59834;52.124;5.422;2022-08-11T13:41:55;102111.66;;;30.92;24.56
71964;BME280;59834;52.124;5.422;2022-08-11T13:44:33;102108.53;;;30.89;23.87
71964;BME280;59834;52.124;5.422;2022-08-11T13:47:02;102114.53;;;30.91;23.86
71964;BME280;59834;52.124;5.422;2022-08-11T13:49:41;102105.59;;;30.90;24.36
71964;BME280;59834;52.124;5.422;2022-08-11T13:52:14;102104.59;;;30.98;24.55
71964;BME280;59834;52.124;5.422;2022-08-11T13:54:46;102099.16;;;30.91;24.71
71964;BME280;59834;52.124;5.422;2022-08-11T13:57:18;102101.19;;;30.76;24.20
71964;BME280;59834;52.124;5.422;2022-08-11T14:00:17;102096.63;;;30.76;24.24
71964;BME280;59834;52.124;5.422;2022-08-11T14:02:55;102100.00;;;30.85;24.60
71964;BME280;59834;52.124;5.422;2022-08-11T14:05:36;102093.75;;;30.91;25.49
71964;BME280;59834;52.124;5.422;2022-08-11T14:08:18;102094.81;;;30.97;25.92
71964;BME280;59834;52.124;5.422;2022-08-11T14:11:06;102095.84;;;30.89;24.41
71964;BME280;59834;52.124;5.422;2022-08-11T14:14:20;102090.41;;;30.83;25.40
71964;BME280;59834;52.124;5.422;2022-08-11T14:16:49;102084.19;;;30.82;23.99
71964;BME280;59834;52.124;5.422;2022-08-11T14:19:23;102081.72;;;31.00;24.02
71964;BME280;59834;52.124;5.422;2022-08-11T14:21:53;102081.06;;;30.92;24.32
71964;BME280;59834;52.124;5.422;2022-08-11T14:24:39;102084.66;;;30.99;24.31
71964;BME280;59834;52.124;5.422;2022-08-11T14:27:10;102085.47;;;30.99;24.75
71964;BME280;59834;52.124;5.422;2022-08-11T14:30:02;102078.84;;;31.02;23.96
71964;BME280;59834;52.124;5.422;2022-08-11T14:32:31;102076.97;;;31.03;24.06
71964;BME280;59834;52.124;5.422;2022-08-11T14:35:18;102082.34;;;30.96;23.47
71964;BME280;59834;52.124;5.422;2022-08-11T14:37:47;102068.38;;;30.86;24.63
71964;BME280;59834;52.124;5.422;2022-08-11T14:40:15;102070.72;;;30.95;23.72
71964;BME280;59834;52.124;5.422;2022-08-11T14:43:03;102061.34;;;31.05;24.23
71964;BME280;59834;52.124;5.422;2022-08-11T14:46:12;102065.53;;;31.14;24.28
71964;BME280;59834;52.124;5.422;2022-08-11T14:48:58;102053.50;;;31.23;23.29
71964;BME280;59834;52.124;5.422;2022-08-11T14:51:28;102053.06;;;31.13;24.29
71964;BME280;59834;52.124;5.422;2022-08-11T14:53:57;102053.28;;;31.18;23.95
71964;BME280;59834;52.124;5.422;2022-08-11T14:56:44;102063.88;;;31.06;23.86
71964;BME280;59834;52.124;5.422;2022-08-11T14:59:12;102055.13;;;31.04;24.12
71964;BME280;59834;52.124;5.422;2022-08-11T15:01:38;102055.75;;;30.99;23.71
71964;BME280;59834;52.124;5.422;2022-08-11T15:04:25;102054.88;;;30.86;23.75
71964;BME280;59834;52.124;5.422;2022-08-11T15:07:02;102045.91;;;30.92;23.80
71964;BME280;59834;52.124;5.422;2022-08-11T15:09:29;102040.09;;;30.88;23.98
71964;BME280;59834;52.124;5.422;2022-08-11T15:11:56;102038.84;;;30.84;24.11
71964;BME280;59834;52.124;5.422;2022-08-11T15:14:59;102043.03;;;30.93;24.29
71964;BME280;59834;52.124;5.422;2022-08-11T15:17:45;102041.19;;;31.07;24.28
71964;BME280;59834;52.124;5.422;2022-08-11T15:20:16;102048.06;;;31.10;24.13
71964;BME280;59834;52.124;5.422;2022-08-11T15:23:03;102043.91;;;31.07;23.71
71964;BME280;59834;52.124;5.422;2022-08-11T15:25:57;102030.19;;;31.09;23.86
71964;BME280;59834;52.124;5.422;2022-08-11T15:28:27;102031.44;;;31.06;22.95
71964;BME280;59834;52.124;5.422;2022-08-11T15:31:15;102043.88;;;31.00;23.16
71964;BME280;59834;52.124;5.422;2022-08-11T15:34:13;102033.22;;;30.79;23.45
71964;BME280;59834;52.124;5.422;2022-08-11T15:37:08;102022.19;;;30.81;23.79
71964;BME280;59834;52.124;5.422;2022-08-11T15:40:12;102020.75;;;30.85;24.10
71964;BME280;59834;52.124;5.422;2022-08-11T15:43:06;102017.03;;;30.92;23.92
71964;BME280;59834;52.124;5.422;2022-08-11T15:45:56;102022.63;;;30.91;23.92
71964;BME280;59834;52.124;5.422;2022-08-11T15:48:34;102021.38;;;30.87;23.78
71964;BME280;59834;52.124;5.422;2022-08-11T15:51:11;102022.22;;;30.87;24.63
71964;BME280;59834;52.124;5.422;2022-08-11T15:53:45;102008.28;;;30.90;25.05
71964;BME280;59834;52.124;5.422;2022-08-11T15:56:25;102009.13;;;30.91;25.08
71964;BME280;59834;52.124;5.422;2022-08-11T15:58:55;102004.34;;;30.86;24.34